createdAt,value
2018-07-22T00:00:12.378Z,20.23
2018-07-22T00:02:41.779Z,20.23
2018-07-22T00:05:11.523Z,20.21
2018-07-22T00:07:40.916Z,20.25
2018-07-22T00:10:30.713Z,20.24
2018-07-22T00:13:00.691Z,20.23
2018-07-22T00:15:30.090Z,20.21
2018-07-22T00:17:59.453Z,20.18
2018-07-22T00:20:28.997Z,20.19
2018-07-22T00:22:58.705Z,20.11
2018-07-22T00:25:28.110Z,20.08
2018-07-22T00:27:57.473Z,20.02
2018-07-22T00:30:26.846Z,19.98
2018-07-22T00:32:56.225Z,19.94
2018-07-22T00:35:25.628Z,19.93
2018-07-22T00:37:54.999Z,19.93
2018-07-22T00:40:24.426Z,19.93
2018-07-22T00:42:54.168Z,19.95
2018-07-22T00:45:23.574Z,19.98
2018-07-22T00:47:52.996Z,19.96
2018-07-22T00:50:22.357Z,19.95
2018-07-22T00:52:51.739Z,19.97
2018-07-22T00:55:21.133Z,18.97
2018-07-22T00:57:50.531Z,20.02
2018-07-22T01:00:20.286Z,20.01
2018-07-22T01:02:49.889Z,20.04
2018-07-22T01:05:19.303Z,20.06
2018-07-22T01:07:48.696Z,20.08
2018-07-22T01:10:18.079Z,20.12
2018-07-22T01:12:47.478Z,20.15
2018-07-22T01:15:16.893Z,20.19
2018-07-22T01:17:46.308Z,20.25
2018-07-22T01:20:16.437Z,20.29
2018-07-22T01:22:45.841Z,20.31
2018-07-22T01:25:15.300Z,20.31
2018-07-22T01:27:45.019Z,20.31
2018-07-22T01:30:14.397Z,20.31
2018-07-22T01:32:43.782Z,20.34
2018-07-22T01:35:14.005Z,20.35
2018-07-22T01:37:43.399Z,20.37
2018-07-22T01:40:14.136Z,20.34
2018-07-22T01:42:43.502Z,20.32
2018-07-22T01:45:19.756Z,20.34
2018-07-22T01:47:49.129Z,20.37
2018-07-22T01:50:18.820Z,20.34
2018-07-22T01:52:48.284Z,20.33
2018-07-22T01:55:17.629Z,20.29
2018-07-22T01:57:47.005Z,20.25
2018-07-22T02:00:16.402Z,20.29
2018-07-22T02:02:45.782Z,20.28
2018-07-22T02:05:15.154Z,20.29
2018-07-22T02:07:44.637Z,20.26
2018-07-22T02:10:15.850Z,20.25
2018-07-22T02:12:45.236Z,20.24
2018-07-22T02:15:15.603Z,20.23
2018-07-22T02:17:44.951Z,20.24
2018-07-22T02:20:15.901Z,20.26
2018-07-22T02:22:45.265Z,20.25
2018-07-22T02:25:14.632Z,20.27
2018-07-22T02:27:44.036Z,20.23
2018-07-22T02:30:17.522Z,20.24
2018-07-22T02:32:46.888Z,20.24
2018-07-22T02:35:16.308Z,20.27
2018-07-22T02:37:45.670Z,20.29
2018-07-22T02:40:15.514Z,20.29
2018-07-22T02:42:44.877Z,20.29
2018-07-22T02:45:14.261Z,20.32
2018-07-22T02:47:43.628Z,20.31
2018-07-22T02:50:16.034Z,20.30
2018-07-22T02:52:45.387Z,20.29
2018-07-22T02:55:15.280Z,20.31
2018-07-22T02:57:44.633Z,20.34
2018-07-22T03:00:15.121Z,20.30
2018-07-22T03:02:44.835Z,20.29
2018-07-22T03:05:15.316Z,20.30
2018-07-22T03:07:44.690Z,20.29
2018-07-22T03:10:15.401Z,20.35
2018-07-22T03:12:44.787Z,20.37
2018-07-22T03:15:15.618Z,20.39
2018-07-22T03:17:44.987Z,20.39
2018-07-22T03:20:14.454Z,19.49
2018-07-22T03:22:43.832Z,20.40
2018-07-22T03:25:14.902Z,20.32
2018-07-22T03:27:44.274Z,20.36
2018-07-22T03:30:15.718Z,20.39
2018-07-22T03:32:45.066Z,20.10
2018-07-22T03:35:15.491Z,20.27
2018-07-22T03:37:45.212Z,20.26
2018-07-22T03:40:14.761Z,20.31
2018-07-22T03:42:44.396Z,20.32
2018-07-22T03:45:15.129Z,20.40
2018-07-22T03:47:44.471Z,20.45
2018-07-22T03:50:16.480Z,20.44
2018-07-22T03:52:45.853Z,20.31
2018-07-22T03:55:17.027Z,20.36
2018-07-22T03:57:46.396Z,20.41
2018-07-22T04:00:16.748Z,20.43
2018-07-22T04:02:46.161Z,20.31
2018-07-22T04:05:15.560Z,20.31
2018-07-22T04:07:44.921Z,20.35
2018-07-22T04:10:21.620Z,20.29
2018-07-22T04:12:51.009Z,20.30
2018-07-22T04:15:20.393Z,20.26
2018-07-22T04:17:49.780Z,20.30
2018-07-22T04:20:19.176Z,20.36
2018-07-22T04:22:48.533Z,20.37
2018-07-22T04:25:17.989Z,20.26
2018-07-22T04:27:47.376Z,20.26
2018-07-22T04:30:16.985Z,20.25
2018-07-22T04:32:47.324Z,20.25
2018-07-22T04:35:16.703Z,20.22
2018-07-22T04:37:46.071Z,20.20
2018-07-22T04:40:22.428Z,20.17
2018-07-22T04:42:52.130Z,20.15
2018-07-22T04:45:21.540Z,20.15
2018-07-22T04:47:50.914Z,20.12
2018-07-22T04:50:20.308Z,20.16
2018-07-22T04:52:49.669Z,20.22
2018-07-22T04:55:19.041Z,20.21
2018-07-22T04:57:48.421Z,20.24
2018-07-22T05:00:18.152Z,20.21
2018-07-22T05:02:47.566Z,20.32
2018-07-22T05:05:16.945Z,20.32
2018-07-22T05:07:46.333Z,20.27
2018-07-22T05:10:16.256Z,20.29
2018-07-22T05:12:45.631Z,20.31
2018-07-22T05:15:15.782Z,20.36
2018-07-22T05:17:45.216Z,20.39
2018-07-22T05:20:16.240Z,20.36
2018-07-22T05:22:45.606Z,20.46
2018-07-22T05:25:14.979Z,20.56
2018-07-22T05:27:44.340Z,20.46
2018-07-22T05:30:16.174Z,20.47
2018-07-22T05:32:45.525Z,20.57
2018-07-22T05:35:15.488Z,20.63
2018-07-22T05:37:44.899Z,20.78
2018-07-22T05:40:15.567Z,20.89
2018-07-22T05:42:45.284Z,20.78
2018-07-22T05:45:17.585Z,20.85
2018-07-22T05:47:47.018Z,20.85
2018-07-22T05:50:16.428Z,20.95
2018-07-22T05:52:45.817Z,21.00
2018-07-22T05:55:15.976Z,21.03
2018-07-22T05:57:45.374Z,20.67
2018-07-22T06:00:15.191Z,21.08
2018-07-22T06:02:44.667Z,21.10
2018-07-22T06:05:15.945Z,20.99
2018-07-22T06:07:45.305Z,20.82
2018-07-22T06:10:16.099Z,20.90
2018-07-22T06:12:45.481Z,20.77
2018-07-22T06:15:14.933Z,20.75
2018-07-22T06:17:44.314Z,20.88
2018-07-22T06:20:14.825Z,20.73
2018-07-22T06:22:44.215Z,20.79
2018-07-22T06:25:15.938Z,20.62
2018-07-22T06:27:45.297Z,20.57
2018-07-22T06:30:15.433Z,20.47
2018-07-22T06:32:45.142Z,20.46
2018-07-22T06:35:15.571Z,20.42
2018-07-22T06:37:45.130Z,20.37
2018-07-22T06:40:15.435Z,20.41
2018-07-22T06:42:44.780Z,20.36
2018-07-22T06:45:15.820Z,20.32
2018-07-22T06:47:45.197Z,20.38
2018-07-22T06:50:16.310Z,20.46
2018-07-22T06:52:45.704Z,20.44
2018-07-22T06:55:15.096Z,20.38
2018-07-22T06:57:44.456Z,20.45
2018-07-22T07:00:15.662Z,20.52
2018-07-22T07:02:45.049Z,20.58
2018-07-22T07:05:14.544Z,20.58
2018-07-22T07:07:44.475Z,20.60
2018-07-22T07:10:15.564Z,20.44
2018-07-22T07:12:45.256Z,20.55
2018-07-22T07:15:14.797Z,20.52
2018-07-22T07:17:44.189Z,20.53
2018-07-22T07:20:15.864Z,20.55
2018-07-22T07:22:45.290Z,20.71
2018-07-22T07:25:22.975Z,20.71
2018-07-22T07:27:52.941Z,20.76
2018-07-22T07:30:22.329Z,20.81
2018-07-22T07:32:52.189Z,20.84
2018-07-22T07:35:21.653Z,20.76
2018-07-22T07:37:51.024Z,20.81
2018-07-22T07:40:20.380Z,20.81
2018-07-22T07:42:51.314Z,20.77
2018-07-22T07:45:20.740Z,20.82
2018-07-22T07:47:51.220Z,20.88
2018-07-22T07:50:20.592Z,20.70
2018-07-22T07:52:50.018Z,20.69
2018-07-22T07:55:19.502Z,20.67
2018-07-22T07:57:48.872Z,20.76
2018-07-22T08:00:18.266Z,20.70
2018-07-22T08:02:47.705Z,20.60
2018-07-22T08:05:17.101Z,20.66
2018-07-22T08:07:47.710Z,20.58
2018-07-22T08:10:17.097Z,20.58
2018-07-22T08:12:47.606Z,20.59
2018-07-22T08:15:17.831Z,20.68
2018-07-22T08:17:48.033Z,20.49
2018-07-22T08:20:17.445Z,20.52
2018-07-22T08:22:46.823Z,20.42
2018-07-22T08:25:16.257Z,20.39
2018-07-22T08:27:45.620Z,20.36
2018-07-22T08:30:16.004Z,20.34
2018-07-22T08:32:45.367Z,20.14
2018-07-22T08:35:15.564Z,20.08
2018-07-22T08:37:45.314Z,20.09
2018-07-22T08:40:15.308Z,20.08
2018-07-22T08:42:45.189Z,20.08
2018-07-22T08:45:16.637Z,20.10
2018-07-22T08:47:46.048Z,20.31
2018-07-22T08:50:15.868Z,20.27
2018-07-22T08:52:45.497Z,20.35
2018-07-22T08:55:16.460Z,20.40
2018-07-22T08:57:45.858Z,20.43
2018-07-22T09:00:15.828Z,20.56
2018-07-22T09:02:45.252Z,20.67
2018-07-22T09:05:17.300Z,20.83
2018-07-22T09:07:47.344Z,21.05
2018-07-22T09:10:16.704Z,21.19
2018-07-22T09:12:46.122Z,21.18
2018-07-22T09:15:16.758Z,21.18
2018-07-22T09:17:46.470Z,21.15
2018-07-22T09:20:15.993Z,21.22
2018-07-22T09:22:46.480Z,21.15
2018-07-22T09:25:17.261Z,21.06
2018-07-22T09:27:46.758Z,21.32
2018-07-22T09:30:23.594Z,21.33
2018-07-22T09:32:52.964Z,21.30
2018-07-22T09:35:22.384Z,21.49
2018-07-22T09:37:51.806Z,21.53
2018-07-22T09:40:22.334Z,21.71
2018-07-22T09:42:51.685Z,21.58
2018-07-22T09:45:21.824Z,21.57
2018-07-22T09:47:51.510Z,21.44
2018-07-22T09:50:23.651Z,21.49
2018-07-22T09:52:54.700Z,21.25
2018-07-22T09:55:24.629Z,21.80
2018-07-22T09:57:54.323Z,21.53
2018-07-22T10:00:29.040Z,21.60
2018-07-22T10:02:58.388Z,21.77
2018-07-22T10:05:27.737Z,21.77
2018-07-22T10:07:57.248Z,21.88
2018-07-22T10:10:28.224Z,22.06
2018-07-22T10:12:57.608Z,22.16
2018-07-22T10:15:26.986Z,22.26
2018-07-22T10:17:56.378Z,22.24
2018-07-22T10:20:26.714Z,22.38
2018-07-22T10:22:56.810Z,22.34
2018-07-22T10:25:27.912Z,22.32
2018-07-22T10:27:57.544Z,22.55
2018-07-22T10:30:27.504Z,22.37
2018-07-22T10:32:56.911Z,22.12
2018-07-22T10:35:26.252Z,22.21
2018-07-22T10:37:55.659Z,22.40
2018-07-22T10:40:25.135Z,22.40
2018-07-22T10:42:55.468Z,22.84
2018-07-22T10:45:25.892Z,22.62
2018-07-22T10:47:55.928Z,22.59
2018-07-22T10:50:25.325Z,22.60
2018-07-22T10:52:56.380Z,22.53
2018-07-22T10:55:25.750Z,22.81
2018-07-22T10:57:55.149Z,22.85
2018-07-22T11:00:24.500Z,22.72
2018-07-22T11:02:54.561Z,22.61
2018-07-22T11:05:24.403Z,22.52
2018-07-22T11:07:53.806Z,22.36
2018-07-22T11:10:23.162Z,22.24
2018-07-22T11:12:52.557Z,22.20
2018-07-22T11:15:21.968Z,22.24
2018-07-22T11:17:51.322Z,22.26
2018-07-22T11:20:21.333Z,22.25
2018-07-22T11:22:50.742Z,22.48
2018-07-22T11:25:20.550Z,22.58
2018-07-22T11:27:50.124Z,22.52
2018-07-22T11:30:19.484Z,22.43
2018-07-22T11:32:49.724Z,22.43
2018-07-22T11:35:20.502Z,22.36
2018-07-22T11:37:50.107Z,22.40
2018-07-22T11:40:19.937Z,22.40
2018-07-22T11:42:49.989Z,22.35
2018-07-22T11:45:20.430Z,22.30
2018-07-22T11:47:49.801Z,22.27
2018-07-22T11:50:19.198Z,22.23
2018-07-22T11:52:48.778Z,22.37
2018-07-22T11:55:18.666Z,22.40
2018-07-22T11:57:48.055Z,22.30
2018-07-22T12:00:18.111Z,22.41
2018-07-22T12:02:47.665Z,22.40
2018-07-22T12:05:17.248Z,22.38
2018-07-22T12:07:46.676Z,22.47
2018-07-22T12:10:16.522Z,22.44
2018-07-22T12:12:45.992Z,22.49
2018-07-22T12:15:16.127Z,22.61
2018-07-22T12:17:45.471Z,22.47
2018-07-22T12:20:14.847Z,22.34
2018-07-22T12:22:44.284Z,22.49
2018-07-22T12:25:17.217Z,22.48
2018-07-22T12:27:46.563Z,22.56
2018-07-22T12:30:17.370Z,22.78
2018-07-22T12:32:46.901Z,22.90
2018-07-22T12:35:16.990Z,22.92
2018-07-22T12:37:46.391Z,22.70
2018-07-22T12:40:16.416Z,22.78
2018-07-22T12:42:45.973Z,22.82
2018-07-22T12:45:37.625Z,23.03
2018-07-22T12:48:07.757Z,23.07
2018-07-22T12:50:38.737Z,23.15
2018-07-22T12:53:09.108Z,23.48
2018-07-22T12:55:39.656Z,23.49
2018-07-22T12:58:09.078Z,23.50
2018-07-22T13:00:38.499Z,23.42
2018-07-22T13:03:08.108Z,23.42
2018-07-22T13:05:38.056Z,23.67
2018-07-22T13:08:08.261Z,23.28
2018-07-22T13:10:37.640Z,23.14
2018-07-22T13:13:07.575Z,23.13
2018-07-22T13:15:37.119Z,23.05
2018-07-22T13:18:06.568Z,23.11
2018-07-22T13:20:36.449Z,23.37
2018-07-22T13:23:06.033Z,23.63
2018-07-22T13:25:36.340Z,23.89
2018-07-22T13:28:05.904Z,23.80
2018-07-22T13:30:36.815Z,23.68
2018-07-22T13:33:06.616Z,23.53
2018-07-22T13:35:36.481Z,23.28
2018-07-22T13:38:06.807Z,23.28
2018-07-22T13:40:36.964Z,23.05
2018-07-22T13:43:08.177Z,22.88
2018-07-22T13:45:37.573Z,22.74
2018-07-22T13:48:09.275Z,22.58
2018-07-22T13:50:38.672Z,22.74
2018-07-22T13:53:08.133Z,22.65
2018-07-22T13:55:37.541Z,22.66
2018-07-22T13:58:06.930Z,22.69
2018-07-22T14:00:36.632Z,22.44
2018-07-22T14:03:06.332Z,22.54
2018-07-22T14:05:36.038Z,22.29
2018-07-22T14:08:05.868Z,21.94
2018-07-22T14:10:35.868Z,21.69
2018-07-22T14:13:05.389Z,21.57
2018-07-22T14:15:34.837Z,21.28
2018-07-22T14:18:04.747Z,21.30
2018-07-22T14:20:35.844Z,19.80
2018-07-22T14:23:05.280Z,20.87
2018-07-22T14:25:35.305Z,20.80
2018-07-22T14:28:05.649Z,20.85
2018-07-22T14:30:35.326Z,20.76
2018-07-22T14:33:04.836Z,20.72
2018-07-22T14:35:34.257Z,20.67
2018-07-22T14:38:03.742Z,20.75
2018-07-22T14:40:33.153Z,20.66
2018-07-22T14:43:02.729Z,20.68
2018-07-22T14:45:32.112Z,20.54
2018-07-22T14:48:01.499Z,20.56
2018-07-22T14:50:30.882Z,20.59
2018-07-22T14:53:00.261Z,20.64
2018-07-22T14:55:29.710Z,20.73
2018-07-22T14:57:59.115Z,20.61
2018-07-22T15:00:28.513Z,20.71
2018-07-22T15:02:58.013Z,20.61
2018-07-22T15:05:27.452Z,20.68
2018-07-22T15:07:56.813Z,20.66
2018-07-22T15:10:26.563Z,20.62
2018-07-22T15:12:55.966Z,20.68
2018-07-22T15:15:25.348Z,20.70
2018-07-22T15:17:54.758Z,20.69
2018-07-22T15:20:24.486Z,20.82
2018-07-22T15:22:56.028Z,20.89
2018-07-22T15:25:25.506Z,20.75
2018-07-22T15:27:54.935Z,20.78
2018-07-22T15:30:24.372Z,20.78
2018-07-22T15:32:53.804Z,20.79
2018-07-22T15:35:23.840Z,20.77
2018-07-22T15:37:53.252Z,20.70
2018-07-22T15:40:23.189Z,20.72
2018-07-22T15:42:52.711Z,20.26
2018-07-22T15:45:22.725Z,20.69
2018-07-22T15:47:52.453Z,20.65
2018-07-22T15:50:22.316Z,20.67
2018-07-22T15:52:52.176Z,20.70
2018-07-22T15:55:21.680Z,20.76
2018-07-22T15:57:51.673Z,20.83
2018-07-22T16:00:22.174Z,20.74
2018-07-22T16:02:52.370Z,20.78
2018-07-22T16:05:22.685Z,20.77
2018-07-22T16:07:52.089Z,20.81
2018-07-22T16:10:22.177Z,20.79
2018-07-22T16:12:52.532Z,20.79
2018-07-22T16:15:23.112Z,20.83
2018-07-22T16:17:53.467Z,20.77
2018-07-22T16:20:24.226Z,20.56
2018-07-22T16:22:55.071Z,20.82
2018-07-22T16:25:25.257Z,20.81
2018-07-22T16:27:55.298Z,20.78
2018-07-22T16:30:25.598Z,20.79
2018-07-22T16:32:58.670Z,20.80
2018-07-22T16:35:28.046Z,20.72
2018-07-22T16:37:57.473Z,20.74
2018-07-22T16:40:27.821Z,20.75
2018-07-22T16:42:58.620Z,20.81
2018-07-22T16:45:28.172Z,20.77
2018-07-22T16:47:58.540Z,20.75
2018-07-22T16:50:28.034Z,20.78
2018-07-22T16:52:58.078Z,20.78
2018-07-22T16:55:28.297Z,20.73
2018-07-22T16:57:58.005Z,20.76
2018-07-22T17:00:35.368Z,20.75
2018-07-22T17:03:04.721Z,20.88
2018-07-22T17:05:34.146Z,20.90
2018-07-22T17:08:03.568Z,20.90
2018-07-22T17:10:33.474Z,20.94
2018-07-22T17:13:03.498Z,20.82
2018-07-22T17:15:32.887Z,20.90
2018-07-22T17:18:02.769Z,20.79
2018-07-22T17:20:32.721Z,20.87
2018-07-22T17:23:02.108Z,20.91
2018-07-22T17:25:31.511Z,20.83
2018-07-22T17:28:01.997Z,20.86
2018-07-22T17:30:32.239Z,20.71
2018-07-22T17:33:02.581Z,20.71
2018-07-22T17:35:32.749Z,20.68
2018-07-22T17:38:02.276Z,20.61
2018-07-22T17:40:31.653Z,20.62
2018-07-22T17:43:01.112Z,20.54
2018-07-22T17:45:30.517Z,20.53
2018-07-22T17:47:59.913Z,20.52
2018-07-22T17:50:29.341Z,20.53
2018-07-22T17:52:59.282Z,20.49
2018-07-22T17:55:28.682Z,20.44
2018-07-22T17:57:59.075Z,20.39
2018-07-22T18:00:29.349Z,20.35
2018-07-22T18:03:22.420Z,20.31
2018-07-22T18:05:54.316Z,20.21
2018-07-22T18:08:23.840Z,20.14
2018-07-22T18:10:54.572Z,20.00
2018-07-22T18:13:23.956Z,19.93
2018-07-22T18:15:53.796Z,19.86
2018-07-22T18:18:23.186Z,19.79
2018-07-22T18:20:52.570Z,19.78
2018-07-22T18:23:21.973Z,19.75
2018-07-22T18:25:51.385Z,19.66
2018-07-22T18:28:23.117Z,19.54
2018-07-22T18:30:52.930Z,19.42
2018-07-22T18:33:22.395Z,19.30
2018-07-22T18:35:51.802Z,19.16
2018-07-22T18:38:22.093Z,19.03
2018-07-22T18:40:51.529Z,18.96
2018-07-22T18:43:21.656Z,18.94
2018-07-22T18:45:51.109Z,18.92
2018-07-22T18:48:21.062Z,18.93
2018-07-22T18:50:52.065Z,18.87
2018-07-22T18:53:21.698Z,18.81
2018-07-22T18:55:51.953Z,18.79
2018-07-22T18:58:22.454Z,18.81
2018-07-22T19:00:52.727Z,18.81
2018-07-22T19:03:22.359Z,18.78
2018-07-22T19:05:52.826Z,18.81
2018-07-22T19:08:23.475Z,18.84
2018-07-22T19:10:52.935Z,18.84
2018-07-22T19:13:23.084Z,18.92
2018-07-22T19:15:53.669Z,18.94
2018-07-22T19:18:23.681Z,18.95
2018-07-22T19:20:53.056Z,18.95
2018-07-22T19:23:22.608Z,18.96
2018-07-22T19:25:53.342Z,19.00
2018-07-22T19:28:22.761Z,19.00
2018-07-22T19:30:52.793Z,19.02
2018-07-22T19:33:22.722Z,18.75
2018-07-22T19:35:52.143Z,19.05
2018-07-22T19:38:21.664Z,19.07
2018-07-22T19:40:53.207Z,19.10
2018-07-22T19:43:24.132Z,19.13
2018-07-22T19:45:53.952Z,19.11
2018-07-22T19:48:23.724Z,19.13
2018-07-22T19:50:53.181Z,19.19
2018-07-22T19:53:22.680Z,19.19
2018-07-22T19:55:52.131Z,19.24
2018-07-22T19:58:21.933Z,19.27
2018-07-22T20:00:51.365Z,19.35
2018-07-22T20:03:22.988Z,19.34
2018-07-22T20:05:53.019Z,19.13
2018-07-22T20:08:22.433Z,19.26
2018-07-22T20:10:56.248Z,19.21
2018-07-22T20:13:26.046Z,19.17
2018-07-22T20:15:55.503Z,19.13
2018-07-22T20:18:25.213Z,19.11
2018-07-22T20:20:54.804Z,19.11
2018-07-22T20:23:24.198Z,19.09
2018-07-22T20:25:53.581Z,19.03
2018-07-22T20:28:22.972Z,19.03
2018-07-22T20:30:52.700Z,18.96
2018-07-22T20:33:26.645Z,18.88
2018-07-22T20:35:56.605Z,18.83
2018-07-22T20:38:26.676Z,18.81
2018-07-22T20:40:56.052Z,18.83
2018-07-22T20:43:27.119Z,18.82
2018-07-22T20:45:56.511Z,18.82
2018-07-22T20:48:26.334Z,18.85
2018-07-22T20:51:03.545Z,18.84
2018-07-22T20:53:33.904Z,18.87
2018-07-22T20:56:04.273Z,18.92
2018-07-22T20:58:34.566Z,18.92
2018-07-22T21:01:04.305Z,18.90
2018-07-22T21:03:34.412Z,18.94
2018-07-22T21:06:03.873Z,18.90
2018-07-22T21:08:35.378Z,18.89
2018-07-22T21:11:05.153Z,18.89
2018-07-22T21:13:35.517Z,18.90
2018-07-22T21:16:05.198Z,18.89
2018-07-22T21:18:35.580Z,18.85
2018-07-22T21:21:05.073Z,18.85
2018-07-22T21:23:34.811Z,18.86
2018-07-22T21:26:04.206Z,18.93
2018-07-22T21:28:33.629Z,18.96
2018-07-22T21:31:03.009Z,18.98
2018-07-22T21:33:32.405Z,19.00
2018-07-22T21:36:01.805Z,19.02
2018-07-22T21:38:32.214Z,19.04
2018-07-22T21:41:04.562Z,19.12
2018-07-22T21:43:34.545Z,19.12
2018-07-22T21:46:05.017Z,19.16
2018-07-22T21:48:34.392Z,19.11
2018-07-22T21:51:03.872Z,19.14
2018-07-22T21:53:33.308Z,19.06
2018-07-22T21:56:03.291Z,19.00
2018-07-22T21:58:32.729Z,19.03
2018-07-22T22:01:02.541Z,18.92
2018-07-22T22:03:32.600Z,19.09
2018-07-22T22:06:04.134Z,19.03
2018-07-22T22:08:33.542Z,19.02
2018-07-22T22:11:03.212Z,19.05
2018-07-22T22:13:33.570Z,19.06
2018-07-22T22:16:03.528Z,19.07
2018-07-22T22:18:34.461Z,19.00
2018-07-22T22:21:03.815Z,19.09
2018-07-22T22:23:33.897Z,19.11
2018-07-22T22:26:03.305Z,19.12
2018-07-22T22:28:32.698Z,19.13
2018-07-22T22:31:02.077Z,19.09
2018-07-22T22:33:32.966Z,19.08
2018-07-22T22:36:02.745Z,19.11
2018-07-22T22:38:32.152Z,19.02
2018-07-22T22:41:02.864Z,18.95
2018-07-22T22:43:33.787Z,18.91
2018-07-22T22:46:03.409Z,18.92
2018-07-22T22:48:32.929Z,18.86
2018-07-22T22:51:02.813Z,18.86
2018-07-22T22:53:32.243Z,18.86
2018-07-22T22:56:01.940Z,18.82
2018-07-22T22:58:42.439Z,18.81
2018-07-22T23:01:12.028Z,18.76
2018-07-22T23:03:42.688Z,18.78
2018-07-22T23:06:12.090Z,18.72
2018-07-22T23:08:41.845Z,18.73
2018-07-22T23:11:11.490Z,18.71
2018-07-22T23:13:40.879Z,18.68
2018-07-22T23:16:10.300Z,18.72
2018-07-22T23:18:39.707Z,18.69
2018-07-22T23:21:09.091Z,18.70
2018-07-22T23:23:39.412Z,18.70
2018-07-22T23:26:08.800Z,18.72
2018-07-22T23:28:38.992Z,18.68
2018-07-22T23:31:09.014Z,18.71
2018-07-22T23:33:38.413Z,18.66
2018-07-22T23:36:07.816Z,18.66
2018-07-22T23:38:37.932Z,18.63
2018-07-22T23:41:07.325Z,18.46
2018-07-22T23:43:36.938Z,18.64
2018-07-22T23:46:06.727Z,18.63
2018-07-22T23:48:37.332Z,18.65
2018-07-22T23:51:08.817Z,18.67
2018-07-22T23:53:38.267Z,18.63
2018-07-22T23:56:08.744Z,18.64
2018-07-22T23:58:38.142Z,18.69
